Time;durP1;ratioP1;P1;durP2;ratioP2;P2;SDS_P1;SDS_P2;PMS_P1;PMS_P2;Temp;Humidity;BMP_temperature;BMP_pressure;BME280_temperature;BME280_humidity;BME280_pressure;Samples;Min_cycle;Max_cycle;Signal;HPM_P1;HPM_P2
2023/12/19 00:01:46;;;;;;;10.05;6.92;;;;;;;5.49;100.00;100965.91;1717063;83;21032;-64
2023/12/19 00:04:15;;;;;;;9.08;6.92;;;;;;;5.48;100.00;100958.77;1717120;83;21039;-64
2023/12/19 00:06:43;;;;;;;9.23;5.58;;;;;;;5.48;100.00;100950.61;1716903;83;21032;-65
2023/12/19 00:09:12;;;;;;;11.88;6.55;;;;;;;5.49;100.00;100944.17;1716829;83;21079;-66
2023/12/19 00:11:41;;;;;;;10.35;6.60;;;;;;;5.48;100.00;100936.52;1716968;83;21028;-64
2023/12/19 00:14:09;;;;;;;7.60;5.28;;;;;;;5.46;100.00;100934.96;1717152;83;21008;-65
2023/12/19 00:16:38;;;;;;;7.72;5.33;;;;;;;5.45;100.00;100929.17;1716899;83;21077;-63
2023/12/19 00:19:08;;;;;;;7.45;5.70;;;;;;;5.45;100.00;100931.89;1694887;83;21035;-63
2023/12/19 00:21:37;;;;;;;11.30;6.45;;;;;;;5.46;100.00;100933.60;1716993;83;21098;-66
2023/12/19 00:24:06;;;;;;;17.90;8.25;;;;;;;5.45;100.00;100941.41;1717122;83;21032;-65
2023/12/19 00:26:35;;;;;;;13.13;7.08;;;;;;;5.46;100.00;100946.69;1717188;83;21051;-64
2023/12/19 00:29:04;;;;;;;13.40;7.53;;;;;;;5.47;100.00;100940.75;1717088;83;21004;-62
2023/12/19 00:31:33;;;;;;;14.78;7.60;;;;;;;5.46;100.00;100937.17;1716987;83;21039;-64
2023/12/19 00:34:02;;;;;;;9.75;6.60;;;;;;;5.45;100.00;100937.33;1717035;83;21091;-62
2023/12/19 00:36:31;;;;;;;10.23;5.92;;;;;;;5.45;100.00;100941.41;1717207;83;21463;-64
2023/12/19 00:38:59;;;;;;;10.38;6.87;;;;;;;5.45;100.00;100934.61;1716827;83;21553;-65
2023/12/19 00:41:28;;;;;;;13.55;8.30;;;;;;;5.43;100.00;100929.83;1717051;83;21020;-63
2023/12/19 00:43:57;;;;;;;17.52;8.75;;;;;;;5.40;100.00;100945.94;1717081;83;21035;-63
2023/12/19 00:46:25;;;;;;;19.57;9.80;;;;;;;5.38;100.00;100940.65;1694737;83;21106;-62
2023/12/19 00:48:54;;;;;;;13.53;7.37;;;;;;;5.39;100.00;100933.35;1717112;83;21047;-65
2023/12/19 00:51:23;;;;;;;8.10;5.72;;;;;;;5.38;100.00;100931.64;1694895;83;21016;-64
2023/12/19 00:53:51;;;;;;;8.08;5.53;;;;;;;5.38;100.00;100935.72;1716958;83;21032;-63
2023/12/19 00:56:20;;;;;;;7.00;4.92;;;;;;;5.38;100.00;100922.13;1716962;83;21043;-63
2023/12/19 00:58:50;;;;;;;10.32;6.03;;;;;;;5.39;100.00;100927.92;1717065;83;21083;-66
2023/12/19 01:01:23;;;;;;;7.72;4.97;;;;;;;5.40;100.00;100919.61;1716884;83;21063;-64
2023/12/19 01:03:52;;;;;;;12.00;7.67;;;;;;;5.40;100.00;100916.04;1716910;83;21067;-64
2023/12/19 01:06:21;;;;;;;9.55;6.10;;;;;;;5.39;100.00;100914.33;1717190;83;21075;-64
2023/12/19 01:08:50;;;;;;;7.35;5.45;;;;;;;5.39;100.00;100912.47;1717138;83;21031;-65
2023/12/19 01:11:18;;;;;;;8.58;5.80;;;;;;;5.39;100.00;100904.82;1716898;83;21052;-65
2023/12/19 01:13:47;;;;;;;5.72;4.20;;;;;;;5.38;100.00;100905.32;1694991;83;21067;-66
2023/12/19 01:16:16;;;;;;;8.48;4.83;;;;;;;5.37;100.00;100904.97;1717141;83;21071;-65
2023/12/19 01:18:44;;;;;;;7.58;5.22;;;;;;;5.38;100.00;100903.11;1716870;83;21050;-66
2023/12/19 01:21:13;;;;;;;10.50;6.05;;;;;;;5.39;100.00;100900.24;1716824;83;21044;-65
2023/12/19 01:23:41;;;;;;;7.60;5.47;;;;;;;5.41;100.00;100894.15;1717079;83;21095;-66
2023/12/19 01:26:11;;;;;;;7.37;5.00;;;;;;;5.41;100.00;100895.51;1717089;83;21032;-64
2023/12/19 01:28:41;;;;;;;7.08;5.67;;;;;;;5.43;100.00;100899.43;1715692;83;21044;-63
2023/12/19 01:31:10;;;;;;;10.28;6.75;;;;;;;5.43;100.00;100889.06;1717145;83;21035;-63
2023/12/19 01:33:38;;;;;;;11.68;7.90;;;;;;;5.43;100.00;100895.86;1694756;83;21114;-64
2023/12/19 01:36:10;;;;;;;13.93;9.20;;;;;;;5.43;100.00;100887.70;1695000;83;21075;-65
2023/12/19 01:38:38;;;;;;;11.22;7.35;;;;;;;5.42;100.00;100888.21;1716880;83;21044;-66
2023/12/19 01:41:07;;;;;;;12.80;7.15;;;;;;;5.40;100.00;100880.20;1694753;83;21051;-65
2023/12/19 01:43:36;;;;;;;15.65;7.97;;;;;;;5.38;100.00;100872.72;1717133;83;21051;-63
2023/12/19 01:46:04;;;;;;;14.33;8.33;;;;;;;5.36;100.00;100874.73;1717130;83;21077;-64
2023/12/19 01:48:33;;;;;;;18.00;7.67;;;;;;;5.34;100.00;100870.45;1716897;83;21059;-63
2023/12/19 01:51:02;;;;;;;19.67;8.40;;;;;;;5.31;100.00;100867.54;1717030;83;21070;-63
2023/12/19 01:53:30;;;;;;;25.15;10.32;;;;;;;5.32;100.00;100870.61;1716788;83;21075;-62
2023/12/19 01:55:59;;;;;;;30.30;12.68;;;;;;;5.34;100.00;100864.52;1672060;83;21459;-64
2023/12/19 01:58:29;;;;;;;29.52;11.93;;;;;;;5.34;100.00;100865.02;1717034;83;21024;-64
2023/12/19 02:00:57;;;;;;;35.45;13.25;;;;;;;5.33;100.00;100868.24;1716960;83;21032;-65
2023/12/19 02:03:26;;;;;;;33.05;11.57;;;;;;;5.33;100.00;100868.24;1716016;83;21083;-65
2023/12/19 02:05:55;;;;;;;28.17;10.20;;;;;;;5.35;100.00;100859.94;1713091;83;21110;-63
2023/12/19 02:08:23;;;;;;;18.73;8.68;;;;;;;5.37;100.00;100867.44;1712993;83;21020;-62
2023/12/19 02:10:52;;;;;;;16.48;7.62;;;;;;;5.35;100.00;100862.16;1713024;83;21037;-64
2023/12/19 02:13:21;;;;;;;14.30;7.28;;;;;;;5.35;100.00;100862.66;1712766;84;21083;-63
2023/12/19 02:15:49;;;;;;;13.90;6.85;;;;;;;5.33;100.00;100863.31;1712810;84;21036;-63
2023/12/19 02:18:20;;;;;;;11.75;6.42;;;;;;;5.33;100.00;100857.37;1713088;83;21186;-64
2023/12/19 02:20:49;;;;;;;8.70;5.62;;;;;;;5.33;100.00;100849.73;1712767;84;21039;-64
2023/12/19 02:23:17;;;;;;;7.97;5.00;;;;;;;5.35;100.00;100849.92;1713014;84;21076;-62
2023/12/19 02:25:46;;;;;;;14.98;6.87;;;;;;;5.38;100.00;100851.48;1712814;84;21000;-64
2023/12/19 02:28:14;;;;;;;9.68;6.12;;;;;;;5.39;100.00;100853.19;1712777;84;21044;-64
2023/12/19 02:30:44;;;;;;;11.93;6.97;;;;;;;5.38;100.00;100851.48;1712811;83;21087;-64
2023/12/19 02:33:13;;;;;;;11.15;7.00;;;;;;;5.38;100.00;100841.47;1712853;84;21060;-65
2023/12/19 02:35:42;;;;;;;9.23;6.17;;;;;;;5.39;100.00;100839.61;1712948;83;21080;-64
2023/12/19 02:38:10;;;;;;;10.50;6.70;;;;;;;5.37;100.00;100832.11;1712881;83;21047;-65
2023/12/19 02:40:39;;;;;;;14.68;8.68;;;;;;;5.34;100.00;100816.97;1713125;84;21031;-64
2023/12/19 02:43:07;;;;;;;11.48;6.85;;;;;;;5.33;100.00;100826.63;1712865;84;21036;-63
2023/12/19 02:45:36;;;;;;;9.58;6.40;;;;;;;5.35;100.00;100845.84;1712874;84;21048;-65
2023/12/19 02:48:06;;;;;;;10.13;6.25;;;;;;;5.35;100.00;100847.20;1712872;84;21565;-64
2023/12/19 02:50:34;;;;;;;15.48;7.50;;;;;;;5.35;100.00;100847.20;1712911;84;21075;-66
2023/12/19 02:53:05;;;;;;;10.53;6.33;;;;;;;5.35;100.00;100850.43;1713057;84;21049;-63
2023/12/19 02:55:34;;;;;;;12.10;6.87;;;;;;;5.34;100.00;100849.58;1712819;83;21075;-63
2023/12/19 02:58:03;;;;;;;16.10;9.28;;;;;;;5.34;100.00;100837.85;1685063;84;21515;-64
2023/12/19 03:00:32;;;;;;;13.98;8.00;;;;;;;5.32;100.00;100838.00;1713103;84;21083;-64
2023/12/19 03:03:00;;;;;;;18.10;7.47;;;;;;;5.32;100.00;100836.64;1713079;84;21040;-64
2023/12/19 03:05:29;;;;;;;13.90;7.28;;;;;;;5.33;100.00;100851.94;1712853;83;21137;-64
2023/12/19 03:07:58;;;;;;;13.98;6.80;;;;;;;5.35;100.00;100851.28;1712775;84;21079;-63
2023/12/19 03:10:27;;;;;;;13.40;6.75;;;;;;;5.38;100.00;100848.77;1713015;84;21027;-63
2023/12/19 03:12:55;;;;;;;16.10;8.48;;;;;;;5.37;100.00;100854.70;1713165;84;21056;-63
2023/12/19 03:15:24;;;;;;;17.00;7.87;;;;;;;5.38;100.00;100851.48;1712898;84;21502;-66
2023/12/19 03:17:53;;;;;;;16.80;8.25;;;;;;;5.38;100.00;100846.91;1712837;84;21052;-64
2023/12/19 03:20:22;;;;;;;20.97;8.43;;;;;;;5.39;100.00;100850.47;1712868;84;21056;-65
2023/12/19 03:22:51;;;;;;;16.00;7.90;;;;;;;5.39;100.00;100843.17;1713057;84;21063;-65
2023/12/19 03:25:19;;;;;;;25.57;7.50;;;;;;;5.39;100.00;100851.33;1712813;83;21439;-65
2023/12/19 03:27:48;;;;;;;18.87;7.28;;;;;;;5.39;100.00;100849.11;1712840;84;21051;-63
2023/12/19 03:30:19;;;;;;;29.95;9.30;;;;;;;5.38;100.00;100843.33;1713102;84;21031;-65
2023/12/19 03:32:48;;;;;;;22.22;7.00;;;;;;;5.38;100.00;100843.33;1712855;83;21079;-64
2023/12/19 03:35:17;;;;;;;22.98;7.33;;;;;;;5.37;100.00;100842.48;1712919;83;21103;-64
2023/12/19 03:37:46;;;;;;;18.37;6.78;;;;;;;5.39;100.00;100846.40;1712852;84;21517;-65
2023/12/19 03:40:15;;;;;;;21.68;7.70;;;;;;;5.39;100.00;100840.97;1713041;84;21719;-64
2023/12/19 03:42:43;;;;;;;20.57;6.60;;;;;;;5.38;100.00;100837.39;1713059;83;21032;-62
2023/12/19 03:45:13;;;;;;;20.62;7.55;;;;;;;5.38;100.00;100826.52;1712826;83;21036;-64
2023/12/19 03:47:42;;;;;;;25.85;8.90;;;;;;;5.37;100.00;100830.25;1684995;84;21122;-66
2023/12/19 03:50:10;;;;;;;26.20;9.18;;;;;;;5.39;100.00;100825.52;1712880;84;21032;-64
2023/12/19 03:52:39;;;;;;;24.18;10.35;;;;;;;5.41;100.00;100821.28;1712966;84;21487;-63
2023/12/19 03:55:09;;;;;;;22.95;10.95;;;;;;;5.43;100.00;100816.55;1713011;83;21044;-64
2023/12/19 03:57:37;;;;;;;13.50;6.80;;;;;;;5.44;100.00;100809.25;1713007;83;21493;-62
2023/12/19 04:00:08;;;;;;;10.63;5.80;;;;;;;5.41;100.00;100808.55;1713064;84;21052;-65
2023/12/19 04:02:37;;;;;;;7.65;4.15;;;;;;;5.44;100.00;100811.97;1712943;84;21048;-63
2023/12/19 04:05:07;;;;;;;6.90;4.03;;;;;;;5.43;100.00;100819.77;1712837;84;21055;-64
2023/12/19 04:07:35;;;;;;;10.40;5.33;;;;;;;5.43;100.00;100804.31;1712986;83;21079;-63
2023/12/19 04:10:05;;;;;;;7.25;4.15;;;;;;;5.42;100.00;100803.97;1712974;84;21048;-63
2023/12/19 04:12:35;;;;;;;7.55;4.37;;;;;;;5.39;100.00;100809.20;1713015;84;21044;-63
2023/12/19 04:15:04;;;;;;;8.85;5.80;;;;;;;5.36;100.00;100821.75;1712840;84;21059;-62
2023/12/19 04:17:33;;;;;;;9.65;5.65;;;;;;;5.36;100.00;100819.53;1712872;83;21075;-63
2023/12/19 04:20:03;;;;;;;7.70;5.00;;;;;;;5.37;100.00;100815.30;1712856;83;21475;-63
2023/12/19 04:22:33;;;;;;;7.70;5.47;;;;;;;5.37;100.00;100809.86;1712880;84;21012;-65
2023/12/19 04:25:01;;;;;;;8.48;5.50;;;;;;;5.36;100.00;100809.52;1712874;83;21009;-64
2023/12/19 04:27:30;;;;;;;6.87;4.92;;;;;;;5.33;100.00;100812.55;1713034;84;21063;-64
2023/12/19 04:29:59;;;;;;;6.70;4.80;;;;;;;5.31;100.00;100819.99;1712805;84;21079;-65
2023/12/19 04:32:27;;;;;;;5.78;4.28;;;;;;;5.30;100.00;100816.92;1712814;84;21000;-64
2023/12/19 04:34:56;;;;;;;8.95;5.70;;;;;;;5.27;100.00;100809.08;1712918;84;21024;-64
2023/12/19 04:37:25;;;;;;;7.30;4.72;;;;;;;5.28;100.00;100804.00;1712863;84;21008;-64
2023/12/19 04:39:54;;;;;;;6.10;4.12;;;;;;;5.28;100.00;100802.64;1713040;84;21114;-63
2023/12/19 04:42:23;;;;;;;5.45;4.37;;;;;;;5.29;100.00;100797.56;1712840;84;21039;-63
2023/12/19 04:44:51;;;;;;;5.53;4.00;;;;;;;5.29;100.00;100801.63;1712963;84;21059;-63
2023/12/19 04:47:20;;;;;;;7.20;4.53;;;;;;;5.29;100.00;100802.99;1713004;84;21135;-63
2023/12/19 04:49:49;;;;;;;7.20;4.35;;;;;;;5.28;100.00;100802.64;1712805;83;21056;-63
2023/12/19 04:52:19;;;;;;;14.63;7.80;;;;;;;5.30;100.00;100791.62;1712780;84;21513;-64
2023/12/19 04:54:48;;;;;;;9.08;6.47;;;;;;;5.30;100.00;100781.61;1712804;83;21032;-64
2023/12/19 04:57:16;;;;;;;10.60;6.22;;;;;;;5.31;100.00;100782.46;1712783;83;21040;-62
2023/12/19 04:59:45;;;;;;;8.45;5.53;;;;;;;5.34;100.00;100775.36;1712848;84;21480;-64
2023/12/19 05:02:14;;;;;;;9.38;5.37;;;;;;;5.34;100.00;100765.34;1713049;83;21047;-64
2023/12/19 05:04:42;;;;;;;9.80;5.50;;;;;;;5.32;100.00;100760.57;1712703;83;21019;-67
2023/12/19 05:07:11;;;;;;;6.10;4.17;;;;;;;5.34;100.00;100761.27;1712905;83;21047;-65
2023/12/19 05:09:39;;;;;;;7.80;4.67;;;;;;;5.34;100.00;100764.49;1712818;84;21079;-63
2023/12/19 05:12:08;;;;;;;8.28;5.28;;;;;;;5.35;100.00;100770.27;1712829;83;21463;-63
2023/12/19 05:14:38;;;;;;;10.53;5.95;;;;;;;5.36;100.00;100759.75;1712819;83;21079;-62
2023/12/19 05:17:07;;;;;;;12.33;6.42;;;;;;;5.36;100.00;100753.81;1712787;83;21083;-65
2023/12/19 05:19:35;;;;;;;11.22;6.15;;;;;;;5.36;100.00;100751.09;1684984;84;21592;-65
2023/12/19 05:22:05;;;;;;;10.35;5.78;;;;;;;5.36;100.00;100753.81;1710173;84;21044;-66
2023/12/19 05:24:34;;;;;;;8.58;5.28;;;;;;;5.34;100.00;100750.40;1712983;83;21087;-64
2023/12/19 05:27:05;;;;;;;7.28;4.75;;;;;;;5.32;100.00;100744.77;1712730;83;21032;-65
2023/12/19 05:29:33;;;;;;;8.25;4.72;;;;;;;5.31;100.00;100729.48;1712886;84;21142;-63
2023/12/19 05:32:03;;;;;;;6.62;4.83;;;;;;;5.30;100.00;100725.91;1712954;83;21851;-65
2023/12/19 05:34:31;;;;;;;6.70;4.47;;;;;;;5.31;100.00;100727.62;1712742;84;21111;-65
2023/12/19 05:37:01;;;;;;;7.75;4.85;;;;;;;5.33;100.00;100709.80;1712813;83;21079;-64
2023/12/19 05:39:31;;;;;;;8.88;5.42;;;;;;;5.34;100.00;100719.66;1712697;84;21095;-63
2023/12/19 05:41:59;;;;;;;11.75;8.18;;;;;;;5.34;100.00;100735.45;1712939;84;21111;-64
2023/12/19 05:44:28;;;;;;;9.00;5.90;;;;;;;5.37;100.00;100722.06;1712756;83;21028;-65
2023/12/19 05:46:56;;;;;;;9.20;5.67;;;;;;;5.38;100.00;100721.05;1712748;84;21106;-65
2023/12/19 05:49:25;;;;;;;10.65;6.47;;;;;;;5.37;100.00;100720.20;1712898;84;21084;-63
2023/12/19 05:51:53;;;;;;;11.15;6.62;;;;;;;5.38;100.00;100723.77;1712920;83;21119;-64
2023/12/19 05:54:22;;;;;;;16.82;7.62;;;;;;;5.39;100.00;100726.33;1712976;84;21115;-65
2023/12/19 05:56:52;;;;;;;12.73;7.75;;;;;;;5.39;100.00;100730.41;1712942;84;21155;-64
2023/12/19 05:59:21;;;;;;;10.85;7.10;;;;;;;5.44;100.00;100735.87;1712696;83;21080;-64
2023/12/19 06:01:49;;;;;;;9.78;5.90;;;;;;;5.45;100.00;100736.23;1713156;84;21083;-64
2023/12/19 06:04:20;;;;;;;8.83;5.40;;;;;;;5.47;100.00;100736.92;1713013;84;21047;-64
2023/12/19 06:06:49;;;;;;;10.15;6.17;;;;;;;5.47;100.00;100729.63;1715762;83;21059;-65
2023/12/19 06:09:17;;;;;;;7.45;5.60;;;;;;;5.46;100.00;100731.99;1694796;83;21092;-66
2023/12/19 06:11:46;;;;;;;8.13;5.50;;;;;;;5.47;100.00;100734.20;1716928;83;21027;-64
2023/12/19 06:14:14;;;;;;;9.43;6.30;;;;;;;5.46;100.00;100731.14;1716915;83;21480;-63
2023/12/19 06:16:43;;;;;;;12.00;7.40;;;;;;;5.46;100.00;100729.28;1716909;83;21468;-64
2023/12/19 06:19:12;;;;;;;9.65;6.20;;;;;;;5.47;100.00;100726.91;1694934;83;21079;-66
2023/12/19 06:21:41;;;;;;;13.68;7.25;;;;;;;5.48;100.00;100727.77;1717032;83;21491;-63
2023/12/19 06:24:10;;;;;;;11.20;7.37;;;;;;;5.49;100.00;100724.03;1717084;83;21067;-64
2023/12/19 06:26:39;;;;;;;15.05;8.30;;;;;;;5.50;100.00;100725.23;1717065;83;21067;-65
2023/12/19 06:29:09;;;;;;;13.65;7.80;;;;;;;5.51;100.00;100719.29;1716933;83;21509;-64
2023/12/19 06:31:45;;;;;;;10.35;7.45;;;;;;;5.52;100.00;100725.08;1694788;83;21047;-65
2023/12/19 06:34:15;;;;;;;10.23;6.78;;;;;;;5.54;100.00;100724.41;1716808;83;21036;-66
2023/12/19 06:36:44;;;;;;;10.85;7.35;;;;;;;5.53;100.00;100731.71;1717098;83;21051;-65
2023/12/19 06:39:13;;;;;;;13.55;7.85;;;;;;;5.50;100.00;100719.80;1694731;83;21499;-66
2023/12/19 06:41:42;;;;;;;10.40;7.40;;;;;;;5.51;100.00;100713.35;1716913;83;21536;-66
2023/12/19 06:44:12;;;;;;;15.25;8.13;;;;;;;5.51;100.00;100717.43;1716956;83;21463;-66
2023/12/19 06:46:42;;;;;;;14.90;8.50;;;;;;;5.52;100.00;100712.84;1716937;83;21126;-66
2023/12/19 06:49:17;;;;;;;12.60;8.28;;;;;;;5.53;100.00;100709.12;1695217;83;21476;-67
2023/12/19 06:51:46;;;;;;;14.85;9.23;;;;;;;5.53;100.00;100714.55;1695388;83;21585;-64
2023/12/19 06:54:15;;;;;;;17.80;9.38;;;;;;;5.54;100.00;100710.83;1716854;83;21079;-65
2023/12/19 06:56:43;;;;;;;16.85;9.20;;;;;;;5.54;100.00;100700.80;1717058;83;21039;-65
2023/12/19 06:59:14;;;;;;;16.32;9.93;;;;;;;5.54;100.00;100687.72;1716965;83;20999;-66
2023/12/19 07:01:44;;;;;;;15.88;8.90;;;;;;;5.55;100.00;100692.15;1717102;83;21468;-65
2023/12/19 07:04:13;;;;;;;13.70;10.28;;;;;;;5.56;100.00;100686.55;1717087;83;21036;-65
2023/12/19 07:06:42;;;;;;;13.68;8.88;;;;;;;5.56;100.00;100679.76;1694071;83;21075;-66
2023/12/19 07:09:14;;;;;;;17.67;9.45;;;;;;;5.55;100.00;100690.28;1720499;83;21064;-65
2023/12/19 07:11:42;;;;;;;13.15;8.98;;;;;;;5.54;100.00;100696.73;1720721;83;21117;-66
2023/12/19 07:14:10;;;;;;;16.12;9.83;;;;;;;5.58;100.00;100699.98;1756798;82;21076;-66
2023/12/19 07:16:39;;;;;;;19.42;14.50;;;;;;;5.57;100.00;100686.90;1756670;82;21057;-66
2023/12/19 07:19:08;;;;;;;17.92;11.53;;;;;;;5.58;100.00;100685.03;1756802;82;21469;-64
2023/12/19 07:21:37;;;;;;;18.02;11.45;;;;;;;5.61;100.00;100680.64;1756698;82;21056;-64
2023/12/19 07:24:06;;;;;;;17.35;10.63;;;;;;;5.62;100.00;100680.48;1756646;82;21080;-64
2023/12/19 07:26:34;;;;;;;18.50;10.65;;;;;;;5.65;100.00;100674.73;1756666;82;21116;-65
2023/12/19 07:29:04;;;;;;;17.45;10.28;;;;;;;5.68;100.00;100681.71;1756820;82;21450;-64
2023/12/19 07:31:35;;;;;;;17.55;10.10;;;;;;;5.68;100.00;100685.78;1684140;84;21087;-64
2023/12/19 07:34:05;;;;;;;17.62;10.00;;;;;;;5.68;100.00;100693.44;1756820;82;21044;-65
2023/12/19 07:36:34;;;;;;;15.85;8.65;;;;;;;5.69;100.00;100682.91;1756676;82;21954;-65
2023/12/19 07:39:04;;;;;;;14.90;9.38;;;;;;;5.70;100.00;100669.66;1756809;82;21068;-66
2023/12/19 07:41:33;;;;;;;13.15;9.05;;;;;;;5.71;100.00;100669.16;1756845;82;21032;-64
2023/12/19 07:44:09;;;;;;;16.17;9.38;;;;;;;5.70;100.00;100673.73;1756637;82;21464;-64
2023/12/19 07:46:33;;;;;;;16.25;9.28;;;;;;;5.73;100.00;100678.00;1756129;82;21029;-65
2023/12/19 07:49:01;;;;;;;16.73;9.58;;;;;;;5.75;100.00;100670.55;1756911;82;21052;-64
2023/12/19 07:51:30;;;;;;;15.88;11.63;;;;;;;5.78;100.00;100661.22;1756614;82;21080;-65
2023/12/19 07:53:59;;;;;;;17.57;12.45;;;;;;;5.79;100.00;100663.77;1684140;84;21091;-65
2023/12/19 07:56:29;;;;;;;13.65;9.63;;;;;;;5.78;100.00;100654.42;1756782;81;21017;-65
2023/12/19 07:58:58;;;;;;;21.50;11.18;;;;;;;5.77;100.00;100630.45;1727258;82;21601;-65
2023/12/19 08:01:27;;;;;;;19.90;10.40;;;;;;;5.76;100.00;100621.95;1756841;82;21076;-65
2023/12/19 08:03:56;;;;;;;13.98;9.25;;;;;;;5.77;100.00;100630.45;1756822;82;21498;-66
2023/12/19 08:06:25;;;;;;;14.53;9.25;;;;;;;5.76;100.00;100630.61;1726797;82;21111;-65
2023/12/19 08:08:56;;;;;;;15.08;9.40;;;;;;;5.77;100.00;100634.53;1754452;82;21025;-63
2023/12/19 08:11:26;;;;;;;13.80;8.58;;;;;;;5.78;100.00;100634.02;1754253;82;21533;-63
2023/12/19 08:13:54;;;;;;;15.88;8.70;;;;;;;5.80;100.00;100633.36;1701560;82;21112;-66
2023/12/19 08:16:22;;;;;;;14.20;8.53;;;;;;;5.81;100.00;100626.39;1754381;82;21546;-65
2023/12/19 08:18:51;;;;;;;14.13;9.00;;;;;;;5.81;100.00;100615.52;1725012;82;21077;-66
2023/12/19 08:21:21;;;;;;;16.67;10.90;;;;;;;5.80;100.00;100601.58;1754374;82;21061;-65
2023/12/19 08:23:50;;;;;;;18.62;12.07;;;;;;;5.81;100.00;100606.52;1725105;82;21001;-65
2023/12/19 08:26:21;;;;;;;18.37;9.95;;;;;;;5.82;100.00;100604.99;1754392;82;21479;-65
2023/12/19 08:28:50;;;;;;;14.53;10.48;;;;;;;5.81;100.00;100596.48;1725325;82;21088;-66
2023/12/19 08:31:19;;;;;;;16.50;10.68;;;;;;;5.84;100.00;100597.52;1754249;82;21079;-65
2023/12/19 08:33:48;;;;;;;14.33;10.58;;;;;;;5.86;100.00;100589.23;1754443;82;21044;-63
2023/12/19 08:36:16;;;;;;;15.43;11.80;;;;;;;5.87;100.00;100579.55;1689564;84;21572;-64
2023/12/19 08:38:47;;;;;;;12.80;9.43;;;;;;;5.89;100.00;100575.31;1712498;84;21569;-65
2023/12/19 08:41:16;;;;;;;13.48;9.55;;;;;;;5.91;100.00;100571.95;1715623;84;21052;-65
2023/12/19 08:43:45;;;;;;;16.70;10.08;;;;;;;5.90;100.00;100569.75;1715598;84;21036;-64
2023/12/19 08:46:21;;;;;;;13.30;9.25;;;;;;;5.91;100.00;100571.45;1715641;84;21439;-64
2023/12/19 08:48:50;;;;;;;13.08;8.50;;;;;;;5.89;100.00;100553.08;1715943;84;21095;-64
2023/12/19 08:51:19;;;;;;;13.80;9.00;;;;;;;5.91;100.00;100552.41;1715538;84;21055;-65
2023/12/19 08:53:47;;;;;;;13.58;9.78;;;;;;;5.92;100.00;100551.91;1715605;83;21079;-64
2023/12/19 08:56:20;;;;;;;16.10;10.28;;;;;;;5.93;100.00;100554.45;1682751;84;21194;-65
2023/12/19 08:58:52;;;;;;;14.50;9.60;;;;;;;5.94;100.00;100549.36;1700535;83;21061;-65
2023/12/19 09:01:22;;;;;;;14.75;9.48;;;;;;;5.94;100.00;100537.12;1727843;83;21137;-64
2023/12/19 09:03:50;;;;;;;14.95;9.45;;;;;;;5.97;100.00;100535.95;1690070;83;21051;-63
2023/12/19 09:06:19;;;;;;;15.23;10.45;;;;;;;6.03;100.00;100527.98;1716639;83;21023;-66
2023/12/19 09:08:49;;;;;;;15.10;10.20;;;;;;;6.06;100.00;100531.38;1703564;84;21063;-62
2023/12/19 09:11:18;;;;;;;15.60;10.15;;;;;;;6.08;100.00;100530.70;1771883;81;21503;-65
2023/12/19 09:13:46;;;;;;;16.15;9.50;;;;;;;6.09;100.00;100529.69;1752520;81;21035;-65
2023/12/19 09:16:16;;;;;;;15.08;10.10;;;;;;;6.10;100.00;100536.84;1754315;80;21468;-65
2023/12/19 09:18:45;;;;;;;13.83;8.58;;;;;;;6.12;100.00;100538.87;1750296;81;21543;-65
2023/12/19 09:21:14;;;;;;;13.55;8.25;;;;;;;6.13;100.00;100536.50;1750416;82;21056;-62
2023/12/19 09:23:43;;;;;;;15.95;9.00;;;;;;;6.13;100.00;100526.47;1727353;82;21045;-66
2023/12/19 09:26:13;;;;;;;13.58;8.58;;;;;;;6.13;100.00;100526.47;1750301;82;21049;-62
2023/12/19 09:28:43;;;;;;;16.77;10.88;;;;;;;6.16;100.00;100521.21;1750548;82;21142;-64
2023/12/19 09:31:12;;;;;;;14.07;9.35;;;;;;;6.19;100.00;100526.31;1727389;82;21006;-64
2023/12/19 09:33:41;;;;;;;16.95;10.28;;;;;;;6.20;100.00;100536.19;1750141;82;21048;-65
2023/12/19 09:36:10;;;;;;;15.53;9.88;;;;;;;6.21;100.00;100537.38;1713882;82;21207;-65
2023/12/19 09:38:41;;;;;;;11.88;8.23;;;;;;;6.24;100.00;100533.47;1738033;82;21028;-63
2023/12/19 09:41:15;;;;;;;16.00;9.65;;;;;;;6.27;100.00;100533.14;1750276;82;21055;-63
2023/12/19 09:43:45;;;;;;;18.23;11.93;;;;;;;6.27;100.00;100533.98;1750354;82;21004;-66
2023/12/19 09:46:14;;;;;;;20.10;12.60;;;;;;;6.27;100.00;100529.05;1750405;81;21047;-65
2023/12/19 09:48:43;;;;;;;23.50;13.55;;;;;;;6.28;100.00;100517.16;1750469;82;21048;-65
2023/12/19 09:51:18;;;;;;;20.55;13.03;;;;;;;6.29;100.00;100511.55;1750369;82;21071;-65
2023/12/19 09:53:47;;;;;;;22.58;12.88;;;;;;;6.29;100.00;100494.37;1750318;81;21064;-67
2023/12/19 09:56:17;;;;;;;22.82;14.53;;;;;;;6.29;100.00;100482.13;1750373;82;21460;-65
2023/12/19 09:58:47;;;;;;;21.55;12.88;;;;;;;6.27;100.00;100485.52;1750332;82;21562;-63
2023/12/19 10:01:21;;;;;;;19.62;11.85;;;;;;;6.27;100.00;100470.05;1750413;82;21060;-64
2023/12/19 10:03:55;;;;;;;20.48;13.03;;;;;;;6.24;100.00;100470.89;1750442;80;21072;-64
2023/12/19 10:06:20;;;;;;;26.27;14.83;;;;;;;6.20;100.00;100470.89;1750309;80;21055;-63
2023/12/19 10:08:54;;;;;;;23.70;14.13;;;;;;;6.18;100.00;100470.20;1785360;80;21090;-64
2023/12/19 10:11:25;;;;;;;28.12;16.25;;;;;;;6.18;100.00;100453.88;1776802;80;21479;-63
2023/12/19 10:13:54;;;;;;;29.60;17.20;;;;;;;6.19;100.00;100451.50;1741927;81;21011;-65
2023/12/19 10:16:23;;;;;;;25.50;15.08;;;;;;;6.18;100.00;100434.84;1741956;81;21713;-65
2023/12/19 10:18:55;;;;;;;24.18;15.48;;;;;;;6.11;100.00;100445.54;1758998;81;21083;-62
2023/12/19 10:21:28;;;;;;;23.50;14.45;;;;;;;6.10;100.00;100428.03;1760802;81;21470;-65
2023/12/19 10:24:08;;;;;;;21.68;13.78;;;;;;;6.09;100.00;100427.69;1742279;81;21519;-65
2023/12/19 10:26:39;;;;;;;20.50;13.35;;;;;;;6.08;100.00;100425.98;1760522;81;21050;-65
2023/12/19 10:29:08;;;;;;;23.38;13.50;;;;;;;6.07;100.00;100411.53;1760708;80;21447;-64
2023/12/19 10:31:37;;;;;;;22.35;12.75;;;;;;;6.07;100.00;100387.56;1760984;81;21019;-64
2023/12/19 10:34:07;;;;;;;21.52;13.10;;;;;;;6.07;100.00;100370.73;1761053;80;21062;-65
2023/12/19 10:36:36;;;;;;;22.73;13.13;;;;;;;6.11;100.00;100375.33;1760649;81;21099;-64
2023/12/19 10:39:07;;;;;;;21.62;14.18;;;;;;;6.12;100.00;100379.23;1760736;81;21497;-64
2023/12/19 10:41:38;;;;;;;18.48;11.48;;;;;;;6.16;100.00;100371.59;1760937;81;21007;-65
2023/12/19 10:44:08;;;;;;;24.02;12.73;;;;;;;6.21;100.00;100369.20;1760793;81;21059;-65
2023/12/19 10:46:38;;;;;;;21.15;13.43;;;;;;;6.21;100.00;100348.80;1760706;81;21123;-65
2023/12/19 10:49:07;;;;;;;20.23;12.37;;;;;;;6.21;100.00;100346.93;1741890;81;21134;-64
2023/12/19 10:51:41;;;;;;;21.90;13.20;;;;;;;6.23;100.00;100359.00;1741946;81;20991;-63
2023/12/19 10:54:14;;;;;;;22.13;12.73;;;;;;;6.24;100.00;100349.82;1760619;81;21518;-65
2023/12/19 10:57:14;;;;;;;22.40;13.50;;;;;;;6.24;100.00;100353.39;1753126;81;21084;-65
2023/12/19 11:00:13;;;;;;;21.73;12.75;;;;;;;6.27;100.00;100354.92;1723767;82;21063;-66
2023/12/19 11:03:10;;;;;;;22.62;13.20;;;;;;;6.29;100.00;100358.32;1665970;86;21043;-67
2023/12/19 11:05:50;;;;;;;25.50;15.70;;;;;;;6.30;100.00;100358.66;1724722;82;21051;-65
2023/12/19 11:08:18;;;;;;;26.35;14.45;;;;;;;6.32;100.00;100352.53;1718957;83;21087;-65
2023/12/19 11:11:20;;;;;;;25.77;15.03;;;;;;;6.31;100.00;100344.88;1696263;83;21592;-65
2023/12/19 11:13:49;;;;;;;28.10;16.85;;;;;;;6.32;100.00;100348.45;1684098;83;21054;-64
2023/12/19 11:16:25;;;;;;;28.67;17.02;;;;;;;6.31;100.00;100342.67;1721900;83;21090;-63
2023/12/19 11:18:59;;;;;;;31.48;19.25;;;;;;;6.32;100.00;100348.45;1718924;83;21561;-64
2023/12/19 11:21:48;;;;;;;32.90;18.48;;;;;;;6.27;100.00;100346.25;1722291;83;21055;-65
2023/12/19 11:24:24;;;;;;;29.85;17.48;;;;;;;6.26;100.00;100347.27;1718728;83;21371;-65
2023/12/19 11:27:17;;;;;;;30.20;17.60;;;;;;;6.26;100.00;100341.83;1685034;83;21127;-64
2023/12/19 11:29:56;;;;;;;30.57;17.65;;;;;;;6.26;100.00;100344.55;1718622;83;21043;-63